sensor_id;sensor_type;location;lat;lon;timestamp;pressure;altitude;pressure_sealevel;temperature;humidity
71424;BME280;59240;51.370;-0.486;2023-03-13T00:03:50;99613.69;;;12.48;100.00
71424;BME280;59240;51.370;-0.486;2023-03-13T00:06:17;99601.41;;;12.50;100.00
71424;BME280;59240;51.370;-0.486;2023-03-13T00:08:44;99602.47;;;12.46;99.58
71424;BME280;59240;51.370;-0.486;2023-03-13T00:11:12;99601.41;;;12.50;100.00
71424;BME280;59240;51.370;-0.486;2023-03-13T00:13:41;99565.75;;;12.32;100.00
71424;BME280;59240;51.370;-0.486;2023-03-13T00:16:10;99533.00;;;12.25;100.00
71424;BME280;59240;51.370;-0.486;2023-03-13T00:18:38;99565.44;;;12.55;100.00
71424;BME280;59240;51.370;-0.486;2023-03-13T00:21:06;99571.56;;;12.56;100.00
71424;BME280;59240;51.370;-0.486;2023-03-13T00:23:35;99574.69;;;12.45;98.50
71424;BME280;59240;51.370;-0.486;2023-03-13T00:26:06;99581.28;;;12.52;100.00
71424;BME280;59240;51.370;-0.486;2023-03-13T00:28:34;99583.13;;;12.50;99.18
71424;BME280;59240;51.370;-0.486;2023-03-13T00:31:06;99575.75;;;12.58;100.00
71424;BME280;59240;51.370;-0.486;2023-03-13T00:33:34;99540.50;;;12.50;99.21
71424;BME280;59240;51.370;-0.486;2023-03-13T00:36:24;99568.97;;;12.54;99.75
71424;BME280;59240;51.370;-0.486;2023-03-13T00:38:50;99581.66;;;12.62;100.00
71424;BME280;59240;51.370;-0.486;2023-03-13T00:41:25;99550.41;;;12.43;99.38
71424;BME280;59240;51.370;-0.486;2023-03-13T00:43:52;99565.41;;;12.57;98.18
71424;BME280;59240;51.370;-0.486;2023-03-13T00:46:21;99534.44;;;12.49;98.75
71424;BME280;59240;51.370;-0.486;2023-03-13T00:48:48;99562.06;;;12.53;97.81
71424;BME280;59240;51.370;-0.486;2023-03-13T00:51:17;99534.56;;;12.46;99.14
71424;BME280;59240;51.370;-0.486;2023-03-13T00:53:44;99505.06;;;12.44;98.76
71424;BME280;59240;51.370;-0.486;2023-03-13T00:56:13;99529.34;;;12.46;98.82
71424;BME280;59240;51.370;-0.486;2023-03-13T00:58:41;99513.84;;;12.43;98.08
71424;BME280;59240;51.370;-0.486;2023-03-13T01:01:14;99527.50;;;12.66;98.81
71424;BME280;59240;51.370;-0.486;2023-03-13T01:03:43;99499.38;;;12.53;98.80
71424;BME280;59240;51.370;-0.486;2023-03-13T01:06:12;99514.28;;;12.69;99.15
71424;BME280;59240;51.370;-0.486;2023-03-13T01:08:40;99511.22;;;12.60;98.36
71424;BME280;59240;51.370;-0.486;2023-03-13T01:11:15;99487.25;;;12.52;99.84
71424;BME280;59240;51.370;-0.486;2023-03-13T01:13:42;99485.56;;;12.51;99.36
71424;BME280;59240;51.370;-0.486;2023-03-13T01:16:11;99522.19;;;12.67;100.00
71424;BME280;59240;51.370;-0.486;2023-03-13T01:18:40;99532.16;;;12.76;100.00
71424;BME280;59240;51.370;-0.486;2023-03-13T01:21:07;99522.72;;;12.74;99.03
71424;BME280;59240;51.370;-0.486;2023-03-13T01:23:34;99486.22;;;12.55;99.44
71424;BME280;59240;51.370;-0.486;2023-03-13T01:26:05;99525.44;;;12.72;99.56
71424;BME280;59240;51.370;-0.486;2023-03-13T01:28:33;99524.91;;;12.66;99.69
71424;BME280;59240;51.370;-0.486;2023-03-13T01:31:00;99524.19;;;12.62;99.37
71424;BME280;59240;51.370;-0.486;2023-03-13T01:33:35;99476.78;;;12.52;98.95
71424;BME280;59240;51.370;-0.486;2023-03-13T01:36:03;99503.69;;;12.54;99.14
71424;BME280;59240;51.370;-0.486;2023-03-13T01:38:29;99485.25;;;12.57;99.05
71424;BME280;59240;51.370;-0.486;2023-03-13T01:40:56;99476.88;;;12.51;99.12
71424;BME280;59240;51.370;-0.486;2023-03-13T01:43:25;99465.59;;;12.50;98.51
71424;BME280;59240;51.370;-0.486;2023-03-13T01:51:02;99454.34;;;12.66;98.93
71424;BME280;59240;51.370;-0.486;2023-03-13T01:53:32;99453.41;;;12.67;98.46
71424;BME280;59240;51.370;-0.486;2023-03-13T01:56:01;99387.69;;;12.41;98.95
71424;BME280;59240;51.370;-0.486;2023-03-13T01:58:31;99428.53;;;12.59;98.01
71424;BME280;59240;51.370;-0.486;2023-03-13T02:00:59;99448.19;;;12.67;98.83
71424;BME280;59240;51.370;-0.486;2023-03-13T02:03:26;99449.03;;;12.67;99.60
71424;BME280;59240;51.370;-0.486;2023-03-13T02:05:54;99454.34;;;12.66;98.46
71424;BME280;59240;51.370;-0.486;2023-03-13T02:08:50;99460.19;;;12.71;99.70
71424;BME280;59240;51.370;-0.486;2023-03-13T02:11:45;99450.50;;;12.73;99.56
71424;BME280;59240;51.370;-0.486;2023-03-13T02:14:12;99424.63;;;12.51;98.41
71424;BME280;59240;51.370;-0.486;2023-03-13T02:16:41;99439.06;;;12.58;99.36
71424;BME280;59240;51.370;-0.486;2023-03-13T02:19:27;99428.72;;;12.56;99.81
71424;BME280;59240;51.370;-0.486;2023-03-13T02:24:38;99409.28;;;12.45;100.00
71424;BME280;59240;51.370;-0.486;2023-03-13T02:27:11;99417.47;;;12.54;99.25
71424;BME280;59240;51.370;-0.486;2023-03-13T02:29:37;99401.03;;;12.52;99.66
71424;BME280;59240;51.370;-0.486;2023-03-13T02:32:04;99387.63;;;12.43;99.71
71424;BME280;59240;51.370;-0.486;2023-03-13T02:34:33;99392.88;;;12.58;100.00
71424;BME280;59240;51.370;-0.486;2023-03-13T02:37:01;99385.78;;;12.45;99.80
71424;BME280;59240;51.370;-0.486;2023-03-13T02:39:32;99395.59;;;12.57;100.00
71424;BME280;59240;51.370;-0.486;2023-03-13T02:42:00;99369.25;;;12.44;99.49
71424;BME280;59240;51.370;-0.486;2023-03-13T02:44:28;99350.22;;;12.42;100.00
71424;BME280;59240;51.370;-0.486;2023-03-13T02:46:55;99353.41;;;12.47;100.00
71424;BME280;59240;51.370;-0.486;2023-03-13T02:49:27;99375.53;;;12.57;100.00
71424;BME280;59240;51.370;-0.486;2023-03-13T02:52:27;99372.00;;;12.58;100.00
71424;BME280;59240;51.370;-0.486;2023-03-13T02:55:05;99346.69;;;12.43;100.00
71424;BME280;59240;51.370;-0.486;2023-03-13T02:57:34;99372.31;;;12.52;100.00
71424;BME280;59240;51.370;-0.486;2023-03-13T03:00:02;99348.72;;;12.54;100.00
71424;BME280;59240;51.370;-0.486;2023-03-13T03:02:31;99316.50;;;12.38;99.95
71424;BME280;59240;51.370;-0.486;2023-03-13T03:04:58;99345.16;;;12.39;100.00
71424;BME280;59240;51.370;-0.486;2023-03-13T03:07:24;99318.50;;;12.32;100.00
71424;BME280;59240;51.370;-0.486;2023-03-13T03:09:51;99324.25;;;12.39;100.00
71424;BME280;59240;51.370;-0.486;2023-03-13T03:12:17;99332.53;;;12.47;100.00
71424;BME280;59240;51.370;-0.486;2023-03-13T03:14:44;99312.13;;;12.38;100.00
71424;BME280;59240;51.370;-0.486;2023-03-13T03:17:11;99337.84;;;12.46;100.00
71424;BME280;59240;51.370;-0.486;2023-03-13T03:19:37;99297.84;;;12.28;100.00
71424;BME280;59240;51.370;-0.486;2023-03-13T03:22:04;99320.38;;;12.46;100.00
71424;BME280;59240;51.370;-0.486;2023-03-13T03:24:31;99310.13;;;12.43;100.00
71424;BME280;59240;51.370;-0.486;2023-03-13T03:26:58;99307.94;;;12.51;100.00
71424;BME280;59240;51.370;-0.486;2023-03-13T03:29:25;99319.22;;;12.52;100.00
71424;BME280;59240;51.370;-0.486;2023-03-13T03:31:53;99274.13;;;12.32;100.00
71424;BME280;59240;51.370;-0.486;2023-03-13T03:34:20;99277.41;;;12.36;100.00
71424;BME280;59240;51.370;-0.486;2023-03-13T03:36:46;99290.91;;;12.44;100.00
71424;BME280;59240;51.370;-0.486;2023-03-13T03:39:13;99285.00;;;12.41;100.00
71424;BME280;59240;51.370;-0.486;2023-03-13T03:41:40;99275.56;;;12.38;100.00
71424;BME280;59240;51.370;-0.486;2023-03-13T03:44:06;99282.31;;;12.42;100.00
71424;BME280;59240;51.370;-0.486;2023-03-13T03:46:33;99290.25;;;12.56;100.00
71424;BME280;59240;51.370;-0.486;2023-03-13T03:49:00;99276.59;;;12.51;100.00
71424;BME280;59240;51.370;-0.486;2023-03-13T03:51:26;99289.81;;;12.48;99.79
71424;BME280;59240;51.370;-0.486;2023-03-13T03:53:53;99277.84;;;12.44;100.00
71424;BME280;59240;51.370;-0.486;2023-03-13T03:56:20;99317.28;;;12.55;100.00
71424;BME280;59240;51.370;-0.486;2023-03-13T03:58:47;99265.13;;;12.38;100.00
71424;BME280;59240;51.370;-0.486;2023-03-13T04:01:13;99297.81;;;12.45;99.85
71424;BME280;59240;51.370;-0.486;2023-03-13T04:03:40;99295.47;;;12.56;98.76
71424;BME280;59240;51.370;-0.486;2023-03-13T04:06:07;99293.94;;;12.52;97.47
71424;BME280;59240;51.370;-0.486;2023-03-13T04:08:35;99267.31;;;12.30;97.57
71424;BME280;59240;51.370;-0.486;2023-03-13T04:11:02;99277.09;;;12.42;98.24
71424;BME280;59240;51.370;-0.486;2023-03-13T04:13:28;99266.47;;;12.45;98.07
71424;BME280;59240;51.370;-0.486;2023-03-13T04:15:55;99261.44;;;12.42;96.78
71424;BME280;59240;51.370;-0.486;2023-03-13T04:18:21;99258.34;;;12.34;96.21
71424;BME280;59240;51.370;-0.486;2023-03-13T04:20:48;99283.81;;;12.46;95.46
71424;BME280;59240;51.370;-0.486;2023-03-13T04:23:14;99253.31;;;12.31;95.56
71424;BME280;59240;51.370;-0.486;2023-03-13T04:25:41;99248.09;;;12.31;96.35
71424;BME280;59240;51.370;-0.486;2023-03-13T04:28:08;99283.59;;;12.51;97.24
71424;BME280;59240;51.370;-0.486;2023-03-13T04:30:34;99253.00;;;12.37;96.50
71424;BME280;59240;51.370;-0.486;2023-03-13T04:33:01;99274.91;;;12.50;95.43
71424;BME280;59240;51.370;-0.486;2023-03-13T04:35:27;99235.13;;;12.29;95.57
71424;BME280;59240;51.370;-0.486;2023-03-13T04:37:54;99242.03;;;12.46;96.72
71424;BME280;59240;51.370;-0.486;2023-03-13T04:40:20;99243.28;;;12.39;95.82
71424;BME280;59240;51.370;-0.486;2023-03-13T04:42:47;99250.63;;;12.48;96.05
71424;BME280;59240;51.370;-0.486;2023-03-13T04:45:14;99237.75;;;12.45;97.06
71424;BME280;59240;51.370;-0.486;2023-03-13T04:47:40;99229.91;;;12.45;96.31
71424;BME280;59240;51.370;-0.486;2023-03-13T04:50:07;99211.72;;;12.44;96.59
71424;BME280;59240;51.370;-0.486;2023-03-13T04:52:34;99226.78;;;12.54;97.00
71424;BME280;59240;51.370;-0.486;2023-03-13T04:55:01;99238.56;;;12.62;97.16
71424;BME280;59240;51.370;-0.486;2023-03-13T04:57:27;99230.94;;;12.43;96.14
71424;BME280;59240;51.370;-0.486;2023-03-13T04:59:54;99213.03;;;12.35;97.61
71424;BME280;59240;51.370;-0.486;2023-03-13T05:02:21;99250.38;;;12.53;97.17
71424;BME280;59240;51.370;-0.486;2023-03-13T05:04:48;99249.72;;;12.49;96.65
71424;BME280;59240;51.370;-0.486;2023-03-13T05:07:17;99225.72;;;12.43;97.15
71424;BME280;59240;51.370;-0.486;2023-03-13T05:09:44;99238.34;;;12.50;97.55
71424;BME280;59240;51.370;-0.486;2023-03-13T05:12:10;99211.81;;;12.42;96.21
71424;BME280;59240;51.370;-0.486;2023-03-13T05:14:37;99200.56;;;12.40;95.66
71424;BME280;59240;51.370;-0.486;2023-03-13T05:17:04;99194.00;;;12.33;93.85
71424;BME280;59240;51.370;-0.486;2023-03-13T05:19:30;99192.75;;;12.24;93.01
71424;BME280;59240;51.370;-0.486;2023-03-13T05:21:57;99199.22;;;12.33;93.28
71424;BME280;59240;51.370;-0.486;2023-03-13T05:24:23;99210.00;;;12.27;88.28
71424;BME280;59240;51.370;-0.486;2023-03-13T05:26:50;99209.53;;;12.36;92.69
71424;BME280;59240;51.370;-0.486;2023-03-13T05:29:17;99187.00;;;12.18;90.50
71424;BME280;59240;51.370;-0.486;2023-03-13T05:31:43;99162.66;;;12.01;89.44
71424;BME280;59240;51.370;-0.486;2023-03-13T05:34:10;99232.34;;;12.32;90.63
71424;BME280;59240;51.370;-0.486;2023-03-13T05:36:37;99194.66;;;12.21;91.23
71424;BME280;59240;51.370;-0.486;2023-03-13T05:39:04;99217.78;;;12.28;89.36
71424;BME280;59240;51.370;-0.486;2023-03-13T05:41:31;99205.94;;;12.21;88.33
71424;BME280;59240;51.370;-0.486;2023-03-13T05:43:57;99186.25;;;12.16;89.70
71424;BME280;59240;51.370;-0.486;2023-03-13T05:46:24;99192.50;;;12.29;88.13
71424;BME280;59240;51.370;-0.486;2023-03-13T05:48:50;99188.19;;;12.28;88.76
71424;BME280;59240;51.370;-0.486;2023-03-13T05:51:18;99186.25;;;12.31;88.78
71424;BME280;59240;51.370;-0.486;2023-03-13T05:53:44;99198.38;;;12.32;89.16
71424;BME280;59240;51.370;-0.486;2023-03-13T05:56:11;99209.66;;;12.33;89.15
71424;BME280;59240;51.370;-0.486;2023-03-13T05:58:38;99215.72;;;12.33;89.38
71424;BME280;59240;51.370;-0.486;2023-03-13T06:01:09;99198.72;;;12.26;88.05
71424;BME280;59240;51.370;-0.486;2023-03-13T06:03:37;99222.63;;;12.35;86.38
71424;BME280;59240;51.370;-0.486;2023-03-13T06:06:08;99146.31;;;11.98;86.21
71424;BME280;59240;51.370;-0.486;2023-03-13T06:08:34;99171.25;;;12.19;88.83
71424;BME280;59240;51.370;-0.486;2023-03-13T06:11:01;99191.81;;;12.25;88.96
71424;BME280;59240;51.370;-0.486;2023-03-13T06:13:32;99151.03;;;12.07;88.44
71424;BME280;59240;51.370;-0.486;2023-03-13T06:16:02;99162.31;;;12.08;88.27
71424;BME280;59240;51.370;-0.486;2023-03-13T06:18:32;99182.44;;;12.21;87.79
71424;BME280;59240;51.370;-0.486;2023-03-13T06:21:07;99179.34;;;12.15;88.34
71424;BME280;59240;51.370;-0.486;2023-03-13T06:23:34;99192.50;;;12.29;88.65
71424;BME280;59240;51.370;-0.486;2023-03-13T06:26:01;99198.06;;;12.39;88.06
71424;BME280;59240;51.370;-0.486;2023-03-13T06:28:27;99197.22;;;12.38;84.86
71424;BME280;59240;51.370;-0.486;2023-03-13T06:31:04;99178.19;;;12.36;87.85
71424;BME280;59240;51.370;-0.486;2023-03-13T06:33:31;99155.69;;;12.18;82.73
71424;BME280;59240;51.370;-0.486;2023-03-13T06:35:59;99201.00;;;12.48;86.73
71424;BME280;59240;51.370;-0.486;2023-03-13T06:38:29;99199.91;;;12.52;87.60
71424;BME280;59240;51.370;-0.486;2023-03-13T06:40:56;99164.34;;;12.34;86.82
71424;BME280;59240;51.370;-0.486;2023-03-13T06:43:23;99182.63;;;12.34;85.90
71424;BME280;59240;51.370;-0.486;2023-03-13T06:45:50;99198.38;;;12.32;86.19
71424;BME280;59240;51.370;-0.486;2023-03-13T06:48:17;99184.91;;;12.24;85.63
71424;BME280;59240;51.370;-0.486;2023-03-13T06:50:44;99142.69;;;12.00;85.67
71424;BME280;59240;51.370;-0.486;2023-03-13T06:53:15;99182.56;;;12.36;89.30
71424;BME280;59240;51.370;-0.486;2023-03-13T06:55:43;99212.56;;;12.44;88.17
71424;BME280;59240;51.370;-0.486;2023-03-13T06:58:13;99186.78;;;12.38;87.80
71424;BME280;59240;51.370;-0.486;2023-03-13T07:04:46;99155.03;;;12.30;87.83
71424;BME280;59240;51.370;-0.486;2023-03-13T07:07:26;99145.00;;;12.22;87.16
71424;BME280;59240;51.370;-0.486;2023-03-13T07:10:12;99079.63;;;11.92;85.42
71424;BME280;59240;51.370;-0.486;2023-03-13T07:16:34;99163.53;;;12.49;86.32
71424;BME280;59240;51.370;-0.486;2023-03-13T07:19:00;99124.44;;;12.32;83.86
71424;BME280;59240;51.370;-0.486;2023-03-13T07:21:36;99162.19;;;12.42;83.78
71424;BME280;59240;51.370;-0.486;2023-03-13T07:24:03;99148.00;;;12.46;85.10
71424;BME280;59240;51.370;-0.486;2023-03-13T07:26:36;99066.16;;;12.00;85.94
71424;BME280;59240;51.370;-0.486;2023-03-13T07:29:26;99144.31;;;12.50;83.56
71424;BME280;59240;51.370;-0.486;2023-03-13T07:31:53;99094.94;;;12.14;83.24
71424;BME280;59240;51.370;-0.486;2023-03-13T07:34:27;99091.94;;;12.22;85.11
71424;BME280;59240;51.370;-0.486;2023-03-13T07:36:54;99063.13;;;12.08;83.63
71424;BME280;59240;51.370;-0.486;2023-03-13T07:39:31;99144.47;;;12.63;83.52
71424;BME280;59240;51.370;-0.486;2023-03-13T07:42:19;99085.50;;;12.27;83.32
71424;BME280;59240;51.370;-0.486;2023-03-13T07:44:54;99068.44;;;12.22;85.35
71424;BME280;59240;51.370;-0.486;2023-03-13T07:47:24;99079.28;;;12.30;81.34
71424;BME280;59240;51.370;-0.486;2023-03-13T07:49:58;99084.34;;;12.33;84.26
71424;BME280;59240;51.370;-0.486;2023-03-13T07:52:29;99071.63;;;12.27;81.63
71424;BME280;59240;51.370;-0.486;2023-03-13T07:54:59;99130.28;;;12.67;84.76
71424;BME280;59240;51.370;-0.486;2023-03-13T07:57:26;99119.19;;;12.64;82.70
71424;BME280;59240;51.370;-0.486;2023-03-13T07:59:52;99168.53;;;12.84;83.92
71424;BME280;59240;51.370;-0.486;2023-03-13T08:02:21;99141.22;;;12.74;80.98
71424;BME280;59240;51.370;-0.486;2023-03-13T08:04:51;99112.03;;;12.51;80.46
71424;BME280;59240;51.370;-0.486;2023-03-13T08:07:18;99135.19;;;12.57;78.66
71424;BME280;59240;51.370;-0.486;2023-03-13T08:09:45;99115.97;;;12.58;84.07
71424;BME280;59240;51.370;-0.486;2023-03-13T08:12:11;99131.97;;;12.68;83.72
71424;BME280;59240;51.370;-0.486;2023-03-13T08:14:47;99134.91;;;12.78;84.14
71424;BME280;59240;51.370;-0.486;2023-03-13T08:17:14;99110.91;;;12.55;80.81
71424;BME280;59240;51.370;-0.486;2023-03-13T08:19:43;99111.84;;;12.54;83.20
71424;BME280;59240;51.370;-0.486;2023-03-13T08:22:15;99094.75;;;12.49;81.81
71424;BME280;59240;51.370;-0.486;2023-03-13T08:24:42;99106.63;;;12.54;82.96
71424;BME280;59240;51.370;-0.486;2023-03-13T08:27:08;99128.13;;;12.59;81.89
71424;BME280;59240;51.370;-0.486;2023-03-13T08:29:36;99112.97;;;12.50;79.84
71424;BME280;59240;51.370;-0.486;2023-03-13T08:32:06;99136.53;;;12.65;78.23
71424;BME280;59240;51.370;-0.486;2023-03-13T08:34:33;99092.22;;;12.47;82.00
71424;BME280;59240;51.370;-0.486;2023-03-13T08:37:03;99064.97;;;12.37;83.25
71424;BME280;59240;51.370;-0.486;2023-03-13T08:39:41;99102.66;;;12.63;80.25
71424;BME280;59240;51.370;-0.486;2023-03-13T08:42:11;99092.88;;;12.67;82.75
71424;BME280;59240;51.370;-0.486;2023-03-13T08:44:40;99037.69;;;12.27;80.67
71424;BME280;59240;51.370;-0.486;2023-03-13T08:47:08;99065.19;;;12.48;81.80
71424;BME280;59240;51.370;-0.486;2023-03-13T08:49:38;99072.66;;;12.54;81.86
71424;BME280;59240;51.370;-0.486;2023-03-13T08:52:09;99080.56;;;12.69;82.09
71424;BME280;59240;51.370;-0.486;2023-03-13T08:54:43;99069.25;;;12.68;82.53
71424;BME280;59240;51.370;-0.486;2023-03-13T08:57:10;99071.47;;;12.60;78.96
71424;BME280;59240;51.370;-0.486;2023-03-13T08:59:37;99083.59;;;12.77;81.40
71424;BME280;59240;51.370;-0.486;2023-03-13T09:02:04;99098.03;;;12.82;81.08
71424;BME280;59240;51.370;-0.486;2023-03-13T09:07:35;99059.50;;;12.72;79.65
71424;BME280;59240;51.370;-0.486;2023-03-13T09:10:02;99041.84;;;12.75;79.47
71424;BME280;59240;51.370;-0.486;2023-03-13T09:12:33;99048.50;;;12.81;80.89
71424;BME280;59240;51.370;-0.486;2023-03-13T09:15:00;99044.22;;;12.94;77.50
71424;BME280;59240;51.370;-0.486;2023-03-13T09:17:27;99105.09;;;13.26;79.34
71424;BME280;59240;51.370;-0.486;2023-03-13T09:19:58;99096.69;;;13.35;78.36
71424;BME280;59240;51.370;-0.486;2023-03-13T09:22:34;99070.06;;;13.29;78.90
71424;BME280;59240;51.370;-0.486;2023-03-13T09:25:03;99025.00;;;13.09;77.63
71424;BME280;59240;51.370;-0.486;2023-03-13T09:27:30;98999.63;;;13.11;80.14
71424;BME280;59240;51.370;-0.486;2023-03-13T09:29:56;99092.50;;;13.61;75.43
71424;BME280;59240;51.370;-0.486;2023-03-13T09:32:23;99061.28;;;13.44;73.75
71424;BME280;59240;51.370;-0.486;2023-03-13T09:34:53;99055.75;;;13.63;77.29
71424;BME280;59240;51.370;-0.486;2023-03-13T09:37:22;99041.00;;;13.62;78.88
71424;BME280;59240;51.370;-0.486;2023-03-13T09:39:56;99078.44;;;13.91;76.43
71424;BME280;59240;51.370;-0.486;2023-03-13T09:42:34;99046.50;;;13.72;76.18
71424;BME280;59240;51.370;-0.486;2023-03-13T09:45:12;99045.19;;;13.79;75.33
71424;BME280;59240;51.370;-0.486;2023-03-13T09:47:47;99060.06;;;14.05;75.25
71424;BME280;59240;51.370;-0.486;2023-03-13T09:50:27;99105.31;;;14.21;76.67
71424;BME280;59240;51.370;-0.486;2023-03-13T09:53:04;99045.81;;;13.96;80.24
71424;BME280;59240;51.370;-0.486;2023-03-13T09:55:37;99103.78;;;14.32;74.25
71424;BME280;59240;51.370;-0.486;2023-03-13T09:58:11;99108.84;;;14.35;73.19
71424;BME280;59240;51.370;-0.486;2023-03-13T10:00:53;99040.03;;;14.18;69.88
71424;BME280;59240;51.370;-0.486;2023-03-13T10:03:27;99063.75;;;14.30;71.05
71424;BME280;59240;51.370;-0.486;2023-03-13T10:05:58;99056.50;;;14.06;72.75
71424;BME280;59240;51.370;-0.486;2023-03-13T10:08:35;99101.25;;;14.30;68.28
71424;BME280;59240;51.370;-0.486;2023-03-13T10:13:50;99068.56;;;13.82;70.13
71424;BME280;59240;51.370;-0.486;2023-03-13T10:19:31;99085.50;;;14.17;73.38
71424;BME280;59240;51.370;-0.486;2023-03-13T10:22:03;99089.22;;;14.13;72.27
71424;BME280;59240;51.370;-0.486;2023-03-13T10:27:08;99052.78;;;14.10;73.65
71424;BME280;59240;51.370;-0.486;2023-03-13T10:29:36;99079.88;;;14.23;72.31
71424;BME280;59240;51.370;-0.486;2023-03-13T10:32:08;98991.25;;;13.76;70.88
71424;BME280;59240;51.370;-0.486;2023-03-13T10:34:58;99078.75;;;14.40;69.30
71424;BME280;59240;51.370;-0.486;2023-03-13T10:37:31;99077.41;;;14.35;69.22
71424;BME280;59240;51.370;-0.486;2023-03-13T10:40:20;99056.25;;;14.38;72.20
71424;BME280;59240;51.370;-0.486;2023-03-13T10:42:58;99080.56;;;14.67;70.08
71424;BME280;59240;51.370;-0.486;2023-03-13T10:45:31;99052.34;;;14.58;70.04
71424;BME280;59240;51.370;-0.486;2023-03-13T10:48:13;99048.38;;;14.65;68.91
71424;BME280;59240;51.370;-0.486;2023-03-13T10:50:49;99057.63;;;14.70;71.62
71424;BME280;59240;51.370;-0.486;2023-03-13T10:56:09;99059.66;;;14.92;69.39
71424;BME280;59240;51.370;-0.486;2023-03-13T11:01:29;99066.28;;;15.11;68.09
71424;BME280;59240;51.370;-0.486;2023-03-13T11:04:27;99043.94;;;15.05;66.76
71424;BME280;59240;51.370;-0.486;2023-03-13T11:07:01;99076.22;;;15.44;69.75
71424;BME280;59240;51.370;-0.486;2023-03-13T11:09:29;99054.72;;;15.51;67.92
71424;BME280;59240;51.370;-0.486;2023-03-13T11:12:17;99046.13;;;15.62;71.10
71424;BME280;59240;51.370;-0.486;2023-03-13T11:18:35;99031.59;;;15.69;67.75
71424;BME280;59240;51.370;-0.486;2023-03-13T11:21:04;99033.91;;;15.61;63.62
71424;BME280;59240;51.370;-0.486;2023-03-13T11:23:47;99031.47;;;15.83;62.67
71424;BME280;59240;51.370;-0.486;2023-03-13T11:26:36;99072.31;;;15.88;62.58
71424;BME280;59240;51.370;-0.486;2023-03-13T11:29:16;99036.72;;;15.83;63.92
71424;BME280;59240;51.370;-0.486;2023-03-13T11:31:55;99029.66;;;15.84;66.83
71424;BME280;59240;51.370;-0.486;2023-03-13T11:34:38;99054.47;;;15.93;66.22
71424;BME280;59240;51.370;-0.486;2023-03-13T11:37:11;99043.13;;;15.92;64.67
71424;BME280;59240;51.370;-0.486;2023-03-13T11:39:50;99068.69;;;16.14;67.03
71424;BME280;59240;51.370;-0.486;2023-03-13T11:45:01;99054.34;;;16.18;64.29
71424;BME280;59240;51.370;-0.486;2023-03-13T11:47:43;99055.81;;;16.22;66.18
71424;BME280;59240;51.370;-0.486;2023-03-13T11:56:06;99057.25;;;16.26;65.67
71424;BME280;59240;51.370;-0.486;2023-03-13T11:58:40;99020.00;;;15.84;63.99
71424;BME280;59240;51.370;-0.486;2023-03-13T12:01:16;99056.38;;;15.78;61.82
71424;BME280;59240;51.370;-0.486;2023-03-13T12:03:58;99053.41;;;15.82;64.67
71424;BME280;59240;51.370;-0.486;2023-03-13T12:06:37;99063.09;;;15.82;63.09
71424;BME280;59240;51.370;-0.486;2023-03-13T12:11:59;99040.81;;;15.88;64.25
71424;BME280;59240;51.370;-0.486;2023-03-13T12:17:02;99033.47;;;15.80;62.09
71424;BME280;59240;51.370;-0.486;2023-03-13T12:19:54;99026.56;;;15.79;60.27
71424;BME280;59240;51.370;-0.486;2023-03-13T12:22:29;99029.44;;;16.00;62.06
71424;BME280;59240;51.370;-0.486;2023-03-13T12:25:09;99045.78;;;16.03;62.30
71424;BME280;59240;51.370;-0.486;2023-03-13T12:27:42;99034.97;;;16.08;60.39
71424;BME280;59240;51.370;-0.486;2023-03-13T12:30:35;99055.53;;;16.14;65.11
71424;BME280;59240;51.370;-0.486;2023-03-13T12:33:25;99032.34;;;16.08;62.61
71424;BME280;59240;51.370;-0.486;2023-03-13T12:36:17;99048.81;;;16.10;64.61
71424;BME280;59240;51.370;-0.486;2023-03-13T12:38:55;99004.72;;;15.78;61.32
71424;BME280;59240;51.370;-0.486;2023-03-13T12:41:45;99053.78;;;16.02;61.83
71424;BME280;59240;51.370;-0.486;2023-03-13T12:44:18;99014.81;;;15.59;60.20
71424;BME280;59240;51.370;-0.486;2023-03-13T12:47:07;99011.50;;;15.31;60.34
71424;BME280;59240;51.370;-0.486;2023-03-13T12:50:19;99047.06;;;15.48;63.75
71424;BME280;59240;51.370;-0.486;2023-03-13T12:53:26;99043.19;;;15.28;64.34
71424;BME280;59240;51.370;-0.486;2023-03-13T12:58:50;99039.81;;;14.75;63.83
71424;BME280;59240;51.370;-0.486;2023-03-13T13:01:27;99036.66;;;14.70;65.63
71424;BME280;59240;51.370;-0.486;2023-03-13T13:04:04;99040.22;;;14.69;64.64
71424;BME280;59240;51.370;-0.486;2023-03-13T13:07:06;99044.63;;;14.82;66.53
71424;BME280;59240;51.370;-0.486;2023-03-13T13:12:45;98997.63;;;14.53;66.40
71424;BME280;59240;51.370;-0.486;2023-03-13T13:15:25;99044.53;;;14.70;65.70
71424;BME280;59240;51.370;-0.486;2023-03-13T13:18:03;99029.75;;;14.69;65.59
71424;BME280;59240;51.370;-0.486;2023-03-13T13:23:34;98984.56;;;14.39;64.47
71424;BME280;59240;51.370;-0.486;2023-03-13T13:31:56;99010.59;;;14.55;63.78
71424;BME280;59240;51.370;-0.486;2023-03-13T13:37:04;98998.91;;;14.73;64.68
71424;BME280;59240;51.370;-0.486;2023-03-13T13:39:53;98924.31;;;14.39;63.77
71424;BME280;59240;51.370;-0.486;2023-03-13T13:45:43;98983.41;;;14.83;63.43
71424;BME280;59240;51.370;-0.486;2023-03-13T13:53:52;98971.03;;;15.10;63.69
71424;BME280;59240;51.370;-0.486;2023-03-13T14:01:31;98909.34;;;14.92;62.27
71424;BME280;59240;51.370;-0.486;2023-03-13T14:04:25;98938.06;;;15.06;62.63
71424;BME280;59240;51.370;-0.486;2023-03-13T14:06:56;98930.94;;;15.08;62.08
71424;BME280;59240;51.370;-0.486;2023-03-13T14:09:35;98876.13;;;14.80;61.67
71424;BME280;59240;51.370;-0.486;2023-03-13T14:12:34;98867.19;;;14.95;62.06
71424;BME280;59240;51.370;-0.486;2023-03-13T14:15:19;98943.91;;;15.22;61.09
71424;BME280;59240;51.370;-0.486;2023-03-13T14:17:52;98899.66;;;15.18;61.37
71424;BME280;59240;51.370;-0.486;2023-03-13T14:20:37;98867.59;;;14.89;60.82
71424;BME280;59240;51.370;-0.486;2023-03-13T14:23:08;98882.47;;;15.01;61.61
71424;BME280;59240;51.370;-0.486;2023-03-13T14:25:45;98885.63;;;15.06;61.59
71424;BME280;59240;51.370;-0.486;2023-03-13T14:28:20;98916.63;;;15.38;61.34
71424;BME280;59240;51.370;-0.486;2023-03-13T14:30:49;98887.09;;;15.10;60.72
71424;BME280;59240;51.370;-0.486;2023-03-13T14:33:17;98928.59;;;15.16;61.37
71424;BME280;59240;51.370;-0.486;2023-03-13T14:35:49;98887.13;;;14.85;62.06